sensor_id;sensor_type;location;lat;lon;timestamp;temperature;humidity
74540;SHT31;66042;51.090;-115.340;2023-02-18T00:01:29;1.36;28.15
74540;SHT31;66042;51.090;-115.340;2023-02-18T00:03:57;1.28;28.61
74540;SHT31;66042;51.090;-115.340;2023-02-18T00:06:27;1.24;28.23
74540;SHT31;66042;51.090;-115.340;2023-02-18T00:08:57;1.19;28.73
74540;SHT31;66042;51.090;-115.340;2023-02-18T00:11:27;1.13;28.97
74540;SHT31;66042;51.090;-115.340;2023-02-18T00:13:59;1.10;29.02
74540;SHT31;66042;51.090;-115.340;2023-02-18T00:16:28;1.05;28.88
74540;SHT31;66042;51.090;-115.340;2023-02-18T00:19:04;0.98;28.91
74540;SHT31;66042;51.090;-115.340;2023-02-18T00:21:34;0.93;29.18
74540;SHT31;66042;51.090;-115.340;2023-02-18T00:24:02;0.87;28.76
74540;SHT31;66042;51.090;-115.340;2023-02-18T00:26:33;0.83;28.98
74540;SHT31;66042;51.090;-115.340;2023-02-18T00:29:01;0.81;29.50
74540;SHT31;66042;51.090;-115.340;2023-02-18T00:31:29;0.73;29.21
74540;SHT31;66042;51.090;-115.340;2023-02-18T00:34:00;0.67;29.32
74540;SHT31;66042;51.090;-115.340;2023-02-18T00:36:29;0.62;29.48
74540;SHT31;66042;51.090;-115.340;2023-02-18T00:38:57;0.60;29.80
74540;SHT31;66042;51.090;-115.340;2023-02-18T00:41:28;0.53;29.82
74540;SHT31;66042;51.090;-115.340;2023-02-18T00:43:57;0.45;29.93
74540;SHT31;66042;51.090;-115.340;2023-02-18T00:46:24;0.39;29.81
74540;SHT31;66042;51.090;-115.340;2023-02-18T00:48:51;0.34;29.96
74540;SHT31;66042;51.090;-115.340;2023-02-18T00:51:19;0.28;29.78
74540;SHT31;66042;51.090;-115.340;2023-02-18T00:53:48;0.20;29.47
74540;SHT31;66042;51.090;-115.340;2023-02-18T00:56:14;0.14;29.48
74540;SHT31;66042;51.090;-115.340;2023-02-18T00:58:42;0.08;29.69
74540;SHT31;66042;51.090;-115.340;2023-02-18T01:01:09;0.02;29.93
74540;SHT31;66042;51.090;-115.340;2023-02-18T01:03:40;-0.01;30.32
74540;SHT31;66042;51.090;-115.340;2023-02-18T01:06:09;-0.04;29.65
74540;SHT31;66042;51.090;-115.340;2023-02-18T01:08:38;-0.08;29.93
74540;SHT31;66042;51.090;-115.340;2023-02-18T01:11:07;-0.10;29.89
74540;SHT31;66042;51.090;-115.340;2023-02-18T01:13:36;-0.13;30.10
74540;SHT31;66042;51.090;-115.340;2023-02-18T01:16:04;-0.13;29.72
74540;SHT31;66042;51.090;-115.340;2023-02-18T01:18:31;-0.15;30.16
74540;SHT31;66042;51.090;-115.340;2023-02-18T01:20:59;-0.16;30.38
74540;SHT31;66042;51.090;-115.340;2023-02-18T01:23:26;-0.20;30.24
74540;SHT31;66042;51.090;-115.340;2023-02-18T01:25:53;-0.22;30.25
74540;SHT31;66042;51.090;-115.340;2023-02-18T01:28:22;-0.25;29.81
74540;SHT31;66042;51.090;-115.340;2023-02-18T01:30:50;-0.30;29.77
74540;SHT31;66042;51.090;-115.340;2023-02-18T01:33:19;-0.32;30.44
74540;SHT31;66042;51.090;-115.340;2023-02-18T01:35:46;-0.35;30.56
74540;SHT31;66042;51.090;-115.340;2023-02-18T01:38:14;-0.37;30.34
74540;SHT31;66042;51.090;-115.340;2023-02-18T01:40:46;-0.38;30.70
74540;SHT31;66042;51.090;-115.340;2023-02-18T01:43:17;-0.40;30.82
74540;SHT31;66042;51.090;-115.340;2023-02-18T01:45:50;-0.43;30.87
74540;SHT31;66042;51.090;-115.340;2023-02-18T01:48:32;-0.44;30.73
74540;SHT31;66042;51.090;-115.340;2023-02-18T01:51:10;-0.45;31.10
74540;SHT31;66042;51.090;-115.340;2023-02-18T01:53:56;-0.49;30.98
74540;SHT31;66042;51.090;-115.340;2023-02-18T01:56:59;-0.51;30.38
74540;SHT31;66042;51.090;-115.340;2023-02-18T01:59:39;-0.53;30.77
74540;SHT31;66042;51.090;-115.340;2023-02-18T02:02:23;-0.53;30.82
74540;SHT31;66042;51.090;-115.340;2023-02-18T02:04:54;-0.55;31.10
74540;SHT31;66042;51.090;-115.340;2023-02-18T02:07:22;-0.56;31.37
74540;SHT31;66042;51.090;-115.340;2023-02-18T02:09:52;-0.56;31.23
74540;SHT31;66042;51.090;-115.340;2023-02-18T02:21:22;-0.64;31.22
74540;SHT31;66042;51.090;-115.340;2023-02-18T02:27:20;-0.68;31.84
74540;SHT31;66042;51.090;-115.340;2023-02-18T02:30:16;-0.70;31.82
74540;SHT31;66042;51.090;-115.340;2023-02-18T02:36:45;-0.75;32.28
74540;SHT31;66042;51.090;-115.340;2023-02-18T02:39:59;-0.77;32.19
74540;SHT31;66042;51.090;-115.340;2023-02-18T02:51:08;-0.85;32.51
74540;SHT31;66042;51.090;-115.340;2023-02-18T02:53:40;-0.86;32.61
74540;SHT31;66042;51.090;-115.340;2023-02-18T02:56:12;-0.87;32.77
74540;SHT31;66042;51.090;-115.340;2023-02-18T02:58:59;-0.88;32.89
74540;SHT31;66042;51.090;-115.340;2023-02-18T03:13:06;-0.92;32.94
74540;SHT31;66042;51.090;-115.340;2023-02-18T03:21:56;-0.93;33.34
74540;SHT31;66042;51.090;-115.340;2023-02-18T03:24:55;-0.93;33.33
74540;SHT31;66042;51.090;-115.340;2023-02-18T03:27:24;-0.92;33.41
74540;SHT31;66042;51.090;-115.340;2023-02-18T03:32:49;-0.93;33.55
74540;SHT31;66042;51.090;-115.340;2023-02-18T03:35:23;-0.93;33.51
74540;SHT31;66042;51.090;-115.340;2023-02-18T03:37:53;-0.94;33.27
74540;SHT31;66042;51.090;-115.340;2023-02-18T03:40:37;-0.94;33.38
74540;SHT31;66042;51.090;-115.340;2023-02-18T03:43:04;-0.96;33.53
74540;SHT31;66042;51.090;-115.340;2023-02-18T03:45:31;-0.97;33.65
74540;SHT31;66042;51.090;-115.340;2023-02-18T03:47:58;-0.98;33.36
74540;SHT31;66042;51.090;-115.340;2023-02-18T03:50:25;-0.97;33.48
74540;SHT31;66042;51.090;-115.340;2023-02-18T03:52:52;-0.98;33.55
74540;SHT31;66042;51.090;-115.340;2023-02-18T03:55:19;-1.00;33.61
74540;SHT31;66042;51.090;-115.340;2023-02-18T03:57:46;-1.00;33.72
74540;SHT31;66042;51.090;-115.340;2023-02-18T04:00:13;-1.01;33.64
74540;SHT31;66042;51.090;-115.340;2023-02-18T04:02:40;-1.01;33.70
74540;SHT31;66042;51.090;-115.340;2023-02-18T04:05:07;-1.02;33.86
74540;SHT31;66042;51.090;-115.340;2023-02-18T04:07:35;-1.03;33.79
74540;SHT31;66042;51.090;-115.340;2023-02-18T04:10:02;-1.04;33.96
74540;SHT31;66042;51.090;-115.340;2023-02-18T04:12:30;-1.06;34.00
74540;SHT31;66042;51.090;-115.340;2023-02-18T04:14:57;-1.06;33.91
74540;SHT31;66042;51.090;-115.340;2023-02-18T04:17:25;-1.06;33.54
74540;SHT31;66042;51.090;-115.340;2023-02-18T04:19:52;-1.07;33.56
74540;SHT31;66042;51.090;-115.340;2023-02-18T04:22:19;-1.07;34.02
74540;SHT31;66042;51.090;-115.340;2023-02-18T04:24:46;-1.10;34.49
74540;SHT31;66042;51.090;-115.340;2023-02-18T04:27:13;-1.11;34.28
74540;SHT31;66042;51.090;-115.340;2023-02-18T04:29:40;-1.12;33.73
74540;SHT31;66042;51.090;-115.340;2023-02-18T04:32:07;-1.11;33.57
74540;SHT31;66042;51.090;-115.340;2023-02-18T04:34:34;-1.10;33.84
74540;SHT31;66042;51.090;-115.340;2023-02-18T04:37:01;-1.09;33.73
74540;SHT31;66042;51.090;-115.340;2023-02-18T04:39:27;-1.07;33.60
74540;SHT31;66042;51.090;-115.340;2023-02-18T04:41:54;-1.06;33.62
74540;SHT31;66042;51.090;-115.340;2023-02-18T04:44:21;-1.05;33.65
74540;SHT31;66042;51.090;-115.340;2023-02-18T04:46:47;-1.05;33.86
74540;SHT31;66042;51.090;-115.340;2023-02-18T04:49:14;-1.04;33.84
74540;SHT31;66042;51.090;-115.340;2023-02-18T04:51:41;-1.04;34.32
74540;SHT31;66042;51.090;-115.340;2023-02-18T04:54:07;-1.04;34.65
74540;SHT31;66042;51.090;-115.340;2023-02-18T04:56:34;-1.04;34.36
74540;SHT31;66042;51.090;-115.340;2023-02-18T04:59:01;-1.02;33.42
74540;SHT31;66042;51.090;-115.340;2023-02-18T05:01:28;-0.97;33.41
74540;SHT31;66042;51.090;-115.340;2023-02-18T05:03:55;-0.98;33.62
74540;SHT31;66042;51.090;-115.340;2023-02-18T05:06:22;-0.97;33.92
74540;SHT31;66042;51.090;-115.340;2023-02-18T05:08:49;-0.98;33.65
74540;SHT31;66042;51.090;-115.340;2023-02-18T05:11:16;-0.97;33.46
74540;SHT31;66042;51.090;-115.340;2023-02-18T05:13:42;-0.96;33.58
74540;SHT31;66042;51.090;-115.340;2023-02-18T05:16:10;-0.98;33.96
74540;SHT31;66042;51.090;-115.340;2023-02-18T05:18:38;-1.00;33.79
74540;SHT31;66042;51.090;-115.340;2023-02-18T05:21:05;-1.00;33.62
74540;SHT31;66042;51.090;-115.340;2023-02-18T05:23:32;-1.00;33.84
74540;SHT31;66042;51.090;-115.340;2023-02-18T05:25:59;-1.00;33.85
74540;SHT31;66042;51.090;-115.340;2023-02-18T05:28:26;-1.01;33.81
74540;SHT31;66042;51.090;-115.340;2023-02-18T05:30:53;-1.01;33.20
74540;SHT31;66042;51.090;-115.340;2023-02-18T05:33:21;-1.01;33.43
74540;SHT31;66042;51.090;-115.340;2023-02-18T05:35:48;-1.00;33.16
74540;SHT31;66042;51.090;-115.340;2023-02-18T05:38:15;-0.99;33.40
74540;SHT31;66042;51.090;-115.340;2023-02-18T05:40:42;-1.01;33.55
74540;SHT31;66042;51.090;-115.340;2023-02-18T05:43:09;-1.02;33.96
74540;SHT31;66042;51.090;-115.340;2023-02-18T05:45:36;-1.04;34.10
74540;SHT31;66042;51.090;-115.340;2023-02-18T05:48:04;-1.04;33.82
74540;SHT31;66042;51.090;-115.340;2023-02-18T05:50:31;-1.04;34.00
74540;SHT31;66042;51.090;-115.340;2023-02-18T05:52:58;-1.04;33.91
74540;SHT31;66042;51.090;-115.340;2023-02-18T05:55:25;-1.04;33.97
74540;SHT31;66042;51.090;-115.340;2023-02-18T05:57:52;-1.03;34.09
74540;SHT31;66042;51.090;-115.340;2023-02-18T06:00:19;-1.03;33.98
74540;SHT31;66042;51.090;-115.340;2023-02-18T06:02:46;-1.03;33.90
74540;SHT31;66042;51.090;-115.340;2023-02-18T06:05:14;-1.02;33.67
74540;SHT31;66042;51.090;-115.340;2023-02-18T06:07:41;-1.02;33.88
74540;SHT31;66042;51.090;-115.340;2023-02-18T06:10:08;-1.02;34.26
74540;SHT31;66042;51.090;-115.340;2023-02-18T06:12:35;-1.03;34.29
74540;SHT31;66042;51.090;-115.340;2023-02-18T06:15:01;-1.03;34.29
74540;SHT31;66042;51.090;-115.340;2023-02-18T06:17:29;-1.02;33.92
74540;SHT31;66042;51.090;-115.340;2023-02-18T06:19:56;-1.01;33.88
74540;SHT31;66042;51.090;-115.340;2023-02-18T06:22:22;-1.00;33.81
74540;SHT31;66042;51.090;-115.340;2023-02-18T06:24:50;-1.00;34.19
74540;SHT31;66042;51.090;-115.340;2023-02-18T06:27:17;-1.01;34.21
74540;SHT31;66042;51.090;-115.340;2023-02-18T06:29:45;-1.02;34.40
74540;SHT31;66042;51.090;-115.340;2023-02-18T06:32:12;-1.04;34.50
74540;SHT31;66042;51.090;-115.340;2023-02-18T06:34:39;-1.07;34.79
74540;SHT31;66042;51.090;-115.340;2023-02-18T06:37:07;-1.09;34.98
74540;SHT31;66042;51.090;-115.340;2023-02-18T06:39:34;-1.12;34.75
74540;SHT31;66042;51.090;-115.340;2023-02-18T06:42:00;-1.14;35.03
74540;SHT31;66042;51.090;-115.340;2023-02-18T06:44:27;-1.15;35.04
74540;SHT31;66042;51.090;-115.340;2023-02-18T06:46:54;-1.17;34.94
74540;SHT31;66042;51.090;-115.340;2023-02-18T06:49:21;-1.17;34.90
74540;SHT31;66042;51.090;-115.340;2023-02-18T06:51:48;-1.20;35.28
74540;SHT31;66042;51.090;-115.340;2023-02-18T06:54:15;-1.21;35.57
74540;SHT31;66042;51.090;-115.340;2023-02-18T06:56:42;-1.23;35.40
74540;SHT31;66042;51.090;-115.340;2023-02-18T06:59:09;-1.25;35.54
74540;SHT31;66042;51.090;-115.340;2023-02-18T07:01:36;-1.26;35.82
74540;SHT31;66042;51.090;-115.340;2023-02-18T07:04:02;-1.27;35.68
74540;SHT31;66042;51.090;-115.340;2023-02-18T07:06:30;-1.27;35.77
74540;SHT31;66042;51.090;-115.340;2023-02-18T07:08:56;-1.27;35.63
74540;SHT31;66042;51.090;-115.340;2023-02-18T07:11:24;-1.27;35.57
74540;SHT31;66042;51.090;-115.340;2023-02-18T07:13:51;-1.27;35.83
74540;SHT31;66042;51.090;-115.340;2023-02-18T07:16:18;-1.27;35.87
74540;SHT31;66042;51.090;-115.340;2023-02-18T07:18:46;-1.24;35.70
74540;SHT31;66042;51.090;-115.340;2023-02-18T07:21:13;-1.23;35.93
74540;SHT31;66042;51.090;-115.340;2023-02-18T07:23:41;-1.22;35.89
74540;SHT31;66042;51.090;-115.340;2023-02-18T07:26:11;-1.21;35.60
74540;SHT31;66042;51.090;-115.340;2023-02-18T07:28:40;-1.19;35.88
74540;SHT31;66042;51.090;-115.340;2023-02-18T07:31:08;-1.18;35.87
74540;SHT31;66042;51.090;-115.340;2023-02-18T07:33:35;-1.16;36.11
74540;SHT31;66042;51.090;-115.340;2023-02-18T07:36:02;-1.17;36.36
74540;SHT31;66042;51.090;-115.340;2023-02-18T07:38:29;-1.17;36.82
74540;SHT31;66042;51.090;-115.340;2023-02-18T07:40:56;-1.19;36.80
74540;SHT31;66042;51.090;-115.340;2023-02-18T07:43:24;-1.20;36.48
74540;SHT31;66042;51.090;-115.340;2023-02-18T07:45:50;-1.18;36.65
74540;SHT31;66042;51.090;-115.340;2023-02-18T07:48:17;-1.18;36.69
74540;SHT31;66042;51.090;-115.340;2023-02-18T07:50:45;-1.17;36.70
74540;SHT31;66042;51.090;-115.340;2023-02-18T07:53:13;-1.19;37.05
74540;SHT31;66042;51.090;-115.340;2023-02-18T07:55:41;-1.21;37.47
74540;SHT31;66042;51.090;-115.340;2023-02-18T07:58:24;-1.20;37.16
74540;SHT31;66042;51.090;-115.340;2023-02-18T08:00:54;-1.19;37.11
74540;SHT31;66042;51.090;-115.340;2023-02-18T08:03:23;-1.20;37.40
74540;SHT31;66042;51.090;-115.340;2023-02-18T08:05:57;-1.20;37.16
74540;SHT31;66042;51.090;-115.340;2023-02-18T08:08:25;-1.21;37.44
74540;SHT31;66042;51.090;-115.340;2023-02-18T08:10:56;-1.23;37.87
74540;SHT31;66042;51.090;-115.340;2023-02-18T08:13:28;-1.25;37.81
74540;SHT31;66042;51.090;-115.340;2023-02-18T08:15:56;-1.25;38.31
74540;SHT31;66042;51.090;-115.340;2023-02-18T08:18:23;-1.25;38.45
74540;SHT31;66042;51.090;-115.340;2023-02-18T08:20:52;-1.27;38.51
74540;SHT31;66042;51.090;-115.340;2023-02-18T08:23:20;-1.27;38.37
74540;SHT31;66042;51.090;-115.340;2023-02-18T08:25:50;-1.29;38.74
74540;SHT31;66042;51.090;-115.340;2023-02-18T08:28:19;-1.32;39.39
74540;SHT31;66042;51.090;-115.340;2023-02-18T08:30:49;-1.33;39.67
74540;SHT31;66042;51.090;-115.340;2023-02-18T08:33:19;-1.36;40.04
74540;SHT31;66042;51.090;-115.340;2023-02-18T08:35:48;-1.38;40.45
74540;SHT31;66042;51.090;-115.340;2023-02-18T08:38:17;-1.40;40.74
74540;SHT31;66042;51.090;-115.340;2023-02-18T08:40:45;-1.42;40.76
74540;SHT31;66042;51.090;-115.340;2023-02-18T08:43:13;-1.43;40.75
74540;SHT31;66042;51.090;-115.340;2023-02-18T08:45:42;-1.45;40.77
74540;SHT31;66042;51.090;-115.340;2023-02-18T08:48:10;-1.46;40.88
74540;SHT31;66042;51.090;-115.340;2023-02-18T08:50:40;-1.47;40.91
74540;SHT31;66042;51.090;-115.340;2023-02-18T08:53:07;-1.49;41.16
74540;SHT31;66042;51.090;-115.340;2023-02-18T08:55:34;-1.52;41.62
74540;SHT31;66042;51.090;-115.340;2023-02-18T08:58:04;-1.54;41.84
74540;SHT31;66042;51.090;-115.340;2023-02-18T09:00:32;-1.57;42.06
74540;SHT31;66042;51.090;-115.340;2023-02-18T09:03:00;-1.58;42.16
74540;SHT31;66042;51.090;-115.340;2023-02-18T09:05:27;-1.61;42.29
74540;SHT31;66042;51.090;-115.340;2023-02-18T09:07:54;-1.64;42.34
74540;SHT31;66042;51.090;-115.340;2023-02-18T09:10:22;-1.66;42.71
74540;SHT31;66042;51.090;-115.340;2023-02-18T09:12:49;-1.69;42.78
74540;SHT31;66042;51.090;-115.340;2023-02-18T09:15:16;-1.72;42.61
74540;SHT31;66042;51.090;-115.340;2023-02-18T09:17:44;-1.73;42.72
74540;SHT31;66042;51.090;-115.340;2023-02-18T09:20:11;-1.74;43.02
74540;SHT31;66042;51.090;-115.340;2023-02-18T09:22:38;-1.76;43.20
74540;SHT31;66042;51.090;-115.340;2023-02-18T09:25:05;-1.78;43.01
74540;SHT31;66042;51.090;-115.340;2023-02-18T09:27:33;-1.79;43.03
74540;SHT31;66042;51.090;-115.340;2023-02-18T09:30:00;-1.79;43.35
74540;SHT31;66042;51.090;-115.340;2023-02-18T09:32:27;-1.80;43.61
74540;SHT31;66042;51.090;-115.340;2023-02-18T09:34:55;-1.81;43.83
74540;SHT31;66042;51.090;-115.340;2023-02-18T09:37:22;-1.82;43.71
74540;SHT31;66042;51.090;-115.340;2023-02-18T09:39:49;-1.81;43.82
74540;SHT31;66042;51.090;-115.340;2023-02-18T09:42:16;-1.80;43.79
74540;SHT31;66042;51.090;-115.340;2023-02-18T09:44:53;-1.80;43.92
74540;SHT31;66042;51.090;-115.340;2023-02-18T09:50:18;-1.82;44.27
74540;SHT31;66042;51.090;-115.340;2023-02-18T09:52:51;-1.82;44.47
74540;SHT31;66042;51.090;-115.340;2023-02-18T09:58:15;-1.86;44.82
74540;SHT31;66042;51.090;-115.340;2023-02-18T10:00:46;-1.88;45.51
74540;SHT31;66042;51.090;-115.340;2023-02-18T10:03:52;-1.89;45.53
74540;SHT31;66042;51.090;-115.340;2023-02-18T10:06:29;-1.90;45.45
74540;SHT31;66042;51.090;-115.340;2023-02-18T10:09:04;-1.92;45.55
74540;SHT31;66042;51.090;-115.340;2023-02-18T10:11:44;-1.94;45.79
74540;SHT31;66042;51.090;-115.340;2023-02-18T10:14:16;-1.97;45.74
74540;SHT31;66042;51.090;-115.340;2023-02-18T10:16:44;-2.00;46.10
74540;SHT31;66042;51.090;-115.340;2023-02-18T10:21:56;-2.07;46.45
74540;SHT31;66042;51.090;-115.340;2023-02-18T10:24:30;-2.10;46.26
74540;SHT31;66042;51.090;-115.340;2023-02-18T10:27:06;-2.13;46.13
74540;SHT31;66042;51.090;-115.340;2023-02-18T10:29:34;-2.14;46.27
74540;SHT31;66042;51.090;-115.340;2023-02-18T10:41:44;-2.24;47.00
74540;SHT31;66042;51.090;-115.340;2023-02-18T10:51:13;-2.32;47.29
74540;SHT31;66042;51.090;-115.340;2023-02-18T10:53:57;-2.32;47.28
74540;SHT31;66042;51.090;-115.340;2023-02-18T10:56:30;-2.30;47.09
74540;SHT31;66042;51.090;-115.340;2023-02-18T10:59:32;-2.28;47.09
74540;SHT31;66042;51.090;-115.340;2023-02-18T11:02:02;-2.27;47.05
74540;SHT31;66042;51.090;-115.340;2023-02-18T11:04:43;-2.25;46.39
74540;SHT31;66042;51.090;-115.340;2023-02-18T11:07:12;-2.22;46.42
74540;SHT31;66042;51.090;-115.340;2023-02-18T11:12:50;-2.19;46.97
74540;SHT31;66042;51.090;-115.340;2023-02-18T11:15:25;-2.21;48.19
74540;SHT31;66042;51.090;-115.340;2023-02-18T11:18:13;-2.26;48.49
74540;SHT31;66042;51.090;-115.340;2023-02-18T11:21:25;-2.30;48.41
74540;SHT31;66042;51.090;-115.340;2023-02-18T11:24:11;-2.32;48.53
74540;SHT31;66042;51.090;-115.340;2023-02-18T11:26:41;-2.33;48.18
74540;SHT31;66042;51.090;-115.340;2023-02-18T11:31:48;-2.31;47.52
74540;SHT31;66042;51.090;-115.340;2023-02-18T11:34:21;-2.30;47.25
74540;SHT31;66042;51.090;-115.340;2023-02-18T11:36:54;-2.28;47.21
74540;SHT31;66042;51.090;-115.340;2023-02-18T11:39:40;-2.25;47.19
74540;SHT31;66042;51.090;-115.340;2023-02-18T11:42:13;-2.24;47.02
74540;SHT31;66042;51.090;-115.340;2023-02-18T11:44:48;-2.23;47.10
74540;SHT31;66042;51.090;-115.340;2023-02-18T11:47:24;-2.22;47.34
74540;SHT31;66042;51.090;-115.340;2023-02-18T11:50:09;-2.21;47.07
74540;SHT31;66042;51.090;-115.340;2023-02-18T11:52:46;-2.21;47.31
74540;SHT31;66042;51.090;-115.340;2023-02-18T11:55:22;-2.20;47.47
74540;SHT31;66042;51.090;-115.340;2023-02-18T11:57:59;-2.19;47.65
74540;SHT31;66042;51.090;-115.340;2023-02-18T12:00:49;-2.20;47.67
74540;SHT31;66042;51.090;-115.340;2023-02-18T12:06:34;-2.18;47.41
74540;SHT31;66042;51.090;-115.340;2023-02-18T12:09:40;-2.17;47.63
74540;SHT31;66042;51.090;-115.340;2023-02-18T12:12:26;-2.17;47.74
74540;SHT31;66042;51.090;-115.340;2023-02-18T12:14:58;-2.18;48.13
74540;SHT31;66042;51.090;-115.340;2023-02-18T12:26:30;-2.19;48.52
74540;SHT31;66042;51.090;-115.340;2023-02-18T12:29:16;-2.19;48.73
74540;SHT31;66042;51.090;-115.340;2023-02-18T12:32:15;-2.20;49.08
74540;SHT31;66042;51.090;-115.340;2023-02-18T12:38:22;-2.27;49.53
74540;SHT31;66042;51.090;-115.340;2023-02-18T12:53:13;-2.33;50.22
74540;SHT31;66042;51.090;-115.340;2023-02-18T13:11:15;-2.39;51.10
74540;SHT31;66042;51.090;-115.340;2023-02-18T13:13:54;-2.42;51.43
74540;SHT31;66042;51.090;-115.340;2023-02-18T13:16:37;-2.45;51.61
74540;SHT31;66042;51.090;-115.340;2023-02-18T13:19:20;-2.49;51.72
74540;SHT31;66042;51.090;-115.340;2023-02-18T13:21:54;-2.51;51.68
74540;SHT31;66042;51.090;-115.340;2023-02-18T13:24:30;-2.51;51.81
74540;SHT31;66042;51.090;-115.340;2023-02-18T13:36:00;-2.56;52.25
74540;SHT31;66042;51.090;-115.340;2023-02-18T13:41:28;-2.59;52.47
74540;SHT31;66042;51.090;-115.340;2023-02-18T13:46:54;-2.63;52.76
74540;SHT31;66042;51.090;-115.340;2023-02-18T13:49:25;-2.64;52.86
74540;SHT31;66042;51.090;-115.340;2023-02-18T13:51:59;-2.67;52.88
74540;SHT31;66042;51.090;-115.340;2023-02-18T13:54:30;-2.68;53.03
74540;SHT31;66042;51.090;-115.340;2023-02-18T13:57:16;-2.69;53.01
74540;SHT31;66042;51.090;-115.340;2023-02-18T13:59:54;-2.70;53.19
74540;SHT31;66042;51.090;-115.340;2023-02-18T14:05:14;-2.71;53.18
74540;SHT31;66042;51.090;-115.340;2023-02-18T14:07:51;-2.71;53.32
74540;SHT31;66042;51.090;-115.340;2023-02-18T14:10:40;-2.71;53.32
74540;SHT31;66042;51.090;-115.340;2023-02-18T14:16:04;-2.70;53.60
74540;SHT31;66042;51.090;-115.340;2023-02-18T14:21:33;-2.68;53.48
74540;SHT31;66042;51.090;-115.340;2023-02-18T14:24:09;-2.68;53.47
74540;SHT31;66042;51.090;-115.340;2023-02-18T14:26:44;-2.68;53.73
74540;SHT31;66042;51.090;-115.340;2023-02-18T14:29:16;-2.68;53.76
74540;SHT31;66042;51.090;-115.340;2023-02-18T14:32:02;-2.69;53.85
74540;SHT31;66042;51.090;-115.340;2023-02-18T14:37:35;-2.71;53.81
74540;SHT31;66042;51.090;-115.340;2023-02-18T14:47:13;-2.75;54.19
74540;SHT31;66042;51.090;-115.340;2023-02-18T14:50:14;-2.76;54.20
74540;SHT31;66042;51.090;-115.340;2023-02-18T14:52:55;-2.76;54.26
74540;SHT31;66042;51.090;-115.340;2023-02-18T14:55:29;-2.77;54.42
74540;SHT31;66042;51.090;-115.340;2023-02-18T15:00:56;-2.81;54.68
74540;SHT31;66042;51.090;-115.340;2023-02-18T15:03:30;-2.84;54.72
74540;SHT31;66042;51.090;-115.340;2023-02-18T15:05:57;-2.83;54.92
74540;SHT31;66042;51.090;-115.340;2023-02-18T15:08:24;-2.83;54.96
74540;SHT31;66042;51.090;-115.340;2023-02-18T15:10:55;-2.82;54.95
74540;SHT31;66042;51.090;-115.340;2023-02-18T15:13:40;-2.82;54.95
74540;SHT31;66042;51.090;-115.340;2023-02-18T15:16:14;-2.81;54.72
74540;SHT31;66042;51.090;-115.340;2023-02-18T15:18:57;-2.80;54.58
74540;SHT31;66042;51.090;-115.340;2023-02-18T15:21:38;-2.77;54.51
74540;SHT31;66042;51.090;-115.340;2023-02-18T15:26:51;-2.73;54.77
74540;SHT31;66042;51.090;-115.340;2023-02-18T15:29:25;-2.70;54.65
74540;SHT31;66042;51.090;-115.340;2023-02-18T15:31:59;-2.69;54.51
74540;SHT31;66042;51.090;-115.340;2023-02-18T15:34:38;-2.67;54.41
74540;SHT31;66042;51.090;-115.340;2023-02-18T15:37:09;-2.65;54.30
74540;SHT31;66042;51.090;-115.340;2023-02-18T15:39:39;-2.64;54.30
74540;SHT31;66042;51.090;-115.340;2023-02-18T15:45:03;-2.58;54.14
74540;SHT31;66042;51.090;-115.340;2023-02-18T15:47:46;-2.57;54.03
74540;SHT31;66042;51.090;-115.340;2023-02-18T15:53:15;-2.54;53.92
74540;SHT31;66042;51.090;-115.340;2023-02-18T15:55:46;-2.52;53.88
74540;SHT31;66042;51.090;-115.340;2023-02-18T15:58:27;-2.49;53.99
74540;SHT31;66042;51.090;-115.340;2023-02-18T16:01:01;-2.46;53.77
74540;SHT31;66042;51.090;-115.340;2023-02-18T16:03:52;-2.43;53.70
74540;SHT31;66042;51.090;-115.340;2023-02-18T16:06:27;-2.39;53.58
74540;SHT31;66042;51.090;-115.340;2023-02-18T16:09:06;-2.38;53.41
74540;SHT31;66042;51.090;-115.340;2023-02-18T16:12:04;-2.36;53.33
74540;SHT31;66042;51.090;-115.340;2023-02-18T16:14:44;-2.32;53.25
74540;SHT31;66042;51.090;-115.340;2023-02-18T16:17:16;-2.31;53.13
74540;SHT31;66042;51.090;-115.340;2023-02-18T16:19:52;-2.30;53.09
74540;SHT31;66042;51.090;-115.340;2023-02-18T16:22:36;-2.29;53.03
74540;SHT31;66042;51.090;-115.340;2023-02-18T16:30:27;-2.24;52.94
74540;SHT31;66042;51.090;-115.340;2023-02-18T16:33:00;-2.23;52.95
74540;SHT31;66042;51.090;-115.340;2023-02-18T16:35:27;-2.20;52.89
74540;SHT31;66042;51.090;-115.340;2023-02-18T16:37:56;-2.18;53.04
74540;SHT31;66042;51.090;-115.340;2023-02-18T16:42:56;-2.08;52.93
74540;SHT31;66042;51.090;-115.340;2023-02-18T16:48:39;-1.96;52.47
74540;SHT31;66042;51.090;-115.340;2023-02-18T16:51:14;-1.90;52.01
74540;SHT31;66042;51.090;-115.340;2023-02-18T16:53:47;-1.83;51.96
74540;SHT31;66042;51.090;-115.340;2023-02-18T16:56:15;-1.79;51.86
74540;SHT31;66042;51.090;-115.340;2023-02-18T16:58:45;-1.73;51.78
74540;SHT31;66042;51.090;-115.340;2023-02-18T17:01:31;-1.66;51.57
74540;SHT31;66042;51.090;-115.340;2023-02-18T17:04:03;-1.55;51.24
74540;SHT31;66042;51.090;-115.340;2023-02-18T17:06:31;-1.43;50.87
74540;SHT31;66042;51.090;-115.340;2023-02-18T17:08:59;-1.30;50.75
74540;SHT31;66042;51.090;-115.340;2023-02-18T17:11:31;-1.16;50.21
74540;SHT31;66042;51.090;-115.340;2023-02-18T17:14:00;-0.98;49.92
74540;SHT31;66042;51.090;-115.340;2023-02-18T17:16:29;-0.82;49.65
74540;SHT31;66042;51.090;-115.340;2023-02-18T17:18:56;-0.65;49.45
74540;SHT31;66042;51.090;-115.340;2023-02-18T17:21:23;-0.45;49.25
74540;SHT31;66042;51.090;-115.340;2023-02-18T17:23:51;-0.24;48.92
74540;SHT31;66042;51.090;-115.340;2023-02-18T17:28:49;0.28;47.42
74540;SHT31;66042;51.090;-115.340;2023-02-18T17:31:19;0.51;46.76
74540;SHT31;66042;51.090;-115.340;2023-02-18T17:33:54;0.69;46.63
74540;SHT31;66042;51.090;-115.340;2023-02-18T17:36:26;0.83;46.02
74540;SHT31;66042;51.090;-115.340;2023-02-18T17:38:53;0.97;45.59
74540;SHT31;66042;51.090;-115.340;2023-02-18T17:41:20;1.10;45.29
74540;SHT31;66042;51.090;-115.340;2023-02-18T17:43:47;1.25;44.66
74540;SHT31;66042;51.090;-115.340;2023-02-18T17:46:15;1.33;44.41
74540;SHT31;66042;51.090;-115.340;2023-02-18T17:48:45;1.43;44.22
74540;SHT31;66042;51.090;-115.340;2023-02-18T17:51:23;1.61;43.50
74540;SHT31;66042;51.090;-115.340;2023-02-18T17:53:54;1.72;42.40
74540;SHT31;66042;51.090;-115.340;2023-02-18T17:56:21;1.80;41.63
74540;SHT31;66042;51.090;-115.340;2023-02-18T17:58:48;1.88;40.89
74540;SHT31;66042;51.090;-115.340;2023-02-18T18:01:16;1.98;41.45
74540;SHT31;66042;51.090;-115.340;2023-02-18T18:03:45;2.11;40.50
74540;SHT31;66042;51.090;-115.340;2023-02-18T18:06:16;2.19;40.87
74540;SHT31;66042;51.090;-115.340;2023-02-18T18:08:45;2.26;40.77
74540;SHT31;66042;51.090;-115.340;2023-02-18T18:11:15;2.37;40.62
74540;SHT31;66042;51.090;-115.340;2023-02-18T18:13:48;2.41;39.11
74540;SHT31;66042;51.090;-115.340;2023-02-18T18:16:17;2.45;39.87